Portada
METAR-TAF:

METAR-TAF

Aeroports :

Whale Cove, Nunavut, Canadà

latitud: 62-14N, longitud: 092-36W, altitud: 20 m

Observació

L'informe es va fer fa 3 hores i 53 minuts, a les 20:00 UTC
Vent 16 kt del Est
Temperatura 3°C
Humitat 81%
Pressió 1008 hPa
Visibilitat: 24.1 km
Cel ennuvolat a una alçada de 17000 ft

METAR: CYXN 162000Z 10016KT 15SM BKN170 03/M00 A2977 RMK AS6 LAST STFD OB/NXT 171200Z SLP083

Hora: 18:53 (23:53 UTC)


TAF: manca

Observacions i pronòstics meteorològics de més de 4000 aeroports (METAR i TAF).

Les estacions disponibles són els punts grocs i vermells al mapa.

Posi el ratolí al punt desitjat per veure el nom de l'estació.

Feu clic per veure les observacions i els pronòstics meteorològics.

Per canviar el mapa: feu clic els botons verds amb una creu de color negre per apropar; al botó verd amb un guió per allunyar la imatge; o en les fletxes verdes per a mapes adjacents.


METAR-TAF: